Time;durP1;ratioP1;P1;durP2;ratioP2;P2;SDS_P1;SDS_P2;PMS_P1;PMS_P2;Temp;Humidity;BMP_temperature;BMP_pressure;BME280_temperature;BME280_humidity;BME280_pressure;Samples;Min_cycle;Max_cycle;Signal;HPM_P1;HPM_P2
2021/12/30 00:00:00;;;;;;;222.60;203.02;;;12.00;99.90;;;;;;5133348;27;20035;-79
2021/12/30 00:02:28;;;;;;;544.47;486.17;;;11.90;99.90;;;;;;5132328;27;20047;-81
2021/12/30 00:04:54;;;;;;;434.80;393.00;;;11.80;99.90;;;;;;5131914;27;20055;-79
2021/12/30 00:07:20;;;;;;;234.35;214.25;;;11.90;99.90;;;;;;5131038;27;20050;-79
2021/12/30 00:09:45;;;;;;;307.85;283.70;;;11.90;99.90;;;;;;5126055;27;20071;-79
2021/12/30 00:12:11;;;;;;;387.92;354.75;;;12.90;99.90;;;;;;5132809;27;20035;-79
2021/12/30 00:14:37;;;;;;;162.10;146.30;;;11.50;99.90;;;;;;5132677;27;20039;-79
2021/12/30 00:17:04;;;;;;;164.35;148.18;;;12.60;99.90;;;;;;5129654;27;20047;-80
2021/12/30 00:19:30;;;;;;;385.98;355.98;;;11.70;99.90;;;;;;5111549;27;20048;-79
2021/12/30 00:21:55;;;;;;;256.45;235.25;;;11.60;99.90;;;;;;5130923;27;20542;-79
2021/12/30 00:24:21;;;;;;;189.40;169.25;;;11.30;99.90;;;;;;5132250;27;20045;-80
2021/12/30 00:26:47;;;;;;;269.38;242.40;;;13.20;99.90;;;;;;5113759;27;20158;-79
2021/12/30 00:29:12;;;;;;;332.48;305.45;;;11.40;99.90;;;;;;5128797;27;20051;-79
2021/12/30 00:31:38;;;;;;;227.07;205.82;;;11.50;99.90;;;;;;5132252;27;20364;-80
2021/12/30 00:34:04;;;;;;;164.85;119.55;;;11.40;99.90;;;;;;5133302;27;20062;-80
2021/12/30 00:36:29;;;;;;;187.82;168.13;;;11.70;99.90;;;;;;5130404;27;20051;-79
2021/12/30 00:38:55;;;;;;;160.40;128.88;;;11.60;99.90;;;;;;5143980;27;20498;-79
2021/12/30 00:41:21;;;;;;;159.43;121.40;;;11.20;99.90;;;;;;5127026;27;20475;-81
2021/12/30 00:43:47;;;;;;;155.45;116.50;;;11.10;99.90;;;;;;5110305;27;20047;-79
2021/12/30 00:46:13;;;;;;;212.80;190.68;;;11.50;99.90;;;;;;5129952;27;20526;-78
2021/12/30 00:48:40;;;;;;;209.70;187.25;;;11.10;99.90;;;;;;5128668;27;20119;-80
2021/12/30 00:51:07;;;;;;;226.30;203.63;;;11.10;99.90;;;;;;5131792;27;20490;-79
2021/12/30 00:53:33;;;;;;;162.68;95.18;;;11.80;99.90;;;;;;5132130;27;20042;-80
2021/12/30 00:55:59;;;;;;;117.05;52.78;;;11.50;99.90;;;;;;5131957;27;20441;-79
2021/12/30 00:58:25;;;;;;;330.25;253.25;;;11.40;99.90;;;;;;5102978;27;20114;-81
2021/12/30 01:00:53;;;;;;;139.82;58.65;;;11.50;99.90;;;;;;5132530;27;20046;-80
2021/12/30 01:03:19;;;;;;;135.57;103.32;;;11.30;99.90;;;;;;5131344;27;20092;-81
2021/12/30 01:05:45;;;;;;;116.60;39.42;;;11.30;99.90;;;;;;5113029;27;20054;-84
2021/12/30 01:08:12;;;;;;;112.90;44.38;;;12.40;99.90;;;;;;5145377;27;20452;-81
2021/12/30 01:10:39;;;;;;;119.03;62.70;;;11.30;99.90;;;;;;5131186;27;20503;-80
2021/12/30 01:13:07;;;;;;;137.75;73.07;;;11.20;99.90;;;;;;5130709;27;20043;-81
2021/12/30 01:15:55;;;;;;;118.93;30.70;;;10.60;99.90;;;;;;5112832;27;20171;-80
2021/12/30 01:18:42;;;;;;;103.63;43.70;;;12.30;99.90;;;;;;5112181;27;20059;-80
2021/12/30 01:21:10;;;;;;;98.95;21.80;;;11.10;99.90;;;;;;5131182;27;20035;-80
2021/12/30 01:23:36;;;;;;;96.07;30.38;;;10.80;99.90;;;;;;5112948;27;20126;-81
2021/12/30 01:26:03;;;;;;;102.82;39.38;;;10.90;99.90;;;;;;5113620;27;20082;-80
2021/12/30 01:28:29;;;;;;;102.85;35.60;;;12.00;99.90;;;;;;5131089;27;20043;-80
2021/12/30 01:30:56;;;;;;;141.82;83.38;;;8.90;99.90;;;;;;5130842;27;20100;-82
2021/12/30 01:33:21;;;;;;;100.93;30.75;;;10.50;99.90;;;;;;5129192;27;20373;-80
2021/12/30 01:35:47;;;;;;;104.32;51.05;;;12.20;99.90;;;;;;5128736;27;20072;-81
2021/12/30 01:38:16;;;;;;;189.13;120.35;;;10.50;99.90;;;;;;5122632;27;20081;-80
2021/12/30 01:40:44;;;;;;;112.78;53.33;;;11.90;99.90;;;;;;5130943;27;20091;-80
2021/12/30 01:43:11;;;;;;;178.80;150.60;;;11.00;99.90;;;;;;5131096;27;20103;-80
2021/12/30 01:45:39;;;;;;;162.15;133.05;;;10.90;99.90;;;;;;5127823;27;20503;-82
2021/12/30 01:48:06;;;;;;;173.93;132.93;;;10.60;99.90;;;;;;5130132;27;20099;-80
2021/12/30 01:50:32;;;;;;;104.60;65.60;;;10.80;99.90;;;;;;5130620;27;20046;-80
2021/12/30 01:52:58;;;;;;;1037.90;590.15;;;11.00;99.90;;;;;;5129423;27;20055;-80
2021/12/30 01:55:25;;;;;;;317.50;228.85;;;11.70;99.90;;;;;;5131496;27;20062;-81
2021/12/30 01:57:50;;;;;;;105.25;47.85;;;10.80;99.90;;;;;;5130114;27;20038;-81
2021/12/30 02:00:21;;;;;;;145.13;114.95;;;10.60;99.90;;;;;;5112472;27;20535;-81
2021/12/30 02:02:46;;;;;;;110.53;48.60;;;11.10;99.90;;;;;;5130285;27;20532;-80
2021/12/30 02:05:12;;;;;;;107.45;57.38;;;13.00;99.90;;;;;;5121582;27;20043;-80
2021/12/30 02:07:38;;;;;;;219.70;191.10;;;12.10;99.90;;;;;;5124932;27;20339;-80
2021/12/30 02:10:06;;;;;;;132.30;106.18;;;10.90;99.90;;;;;;5113925;27;20455;-81
2021/12/30 02:12:33;;;;;;;96.72;46.55;;;10.60;99.90;;;;;;5112154;27;20039;-81
2021/12/30 02:14:59;;;;;;;131.43;110.60;;;11.10;99.90;;;;;;5110132;28;20127;-80
2021/12/30 02:17:26;;;;;;;272.83;115.28;;;11.00;99.90;;;;;;5125824;27;20274;-82
2021/12/30 02:20:01;;;;;;;96.53;35.53;;;11.00;99.90;;;;;;5129022;27;20051;-80
2021/12/30 02:22:26;;;;;;;106.68;47.47;;;10.80;99.90;;;;;;5129152;27;20093;-88
2021/12/30 02:24:52;;;;;;;217.77;184.93;;;10.90;99.90;;;;;;5127258;27;20475;-81
2021/12/30 02:27:19;;;;;;;101.82;42.15;;;11.20;99.90;;;;;;5122899;27;20060;-81
2021/12/30 02:29:45;;;;;;;206.30;184.37;;;11.10;99.90;;;;;;5125394;27;20048;-80
2021/12/30 02:32:11;;;;;;;182.88;81.38;;;11.10;99.90;;;;;;5118995;28;20375;-80
2021/12/30 02:34:38;;;;;;;116.75;76.43;;;10.60;99.90;;;;;;5146365;27;20031;-80
2021/12/30 02:37:05;;;;;;;116.67;72.67;;;12.10;99.90;;;;;;5128655;28;20092;-79
2021/12/30 02:39:31;;;;;;;95.25;45.60;;;12.20;99.90;;;;;;5129466;27;20628;-79
2021/12/30 02:41:57;;;;;;;118.65;59.70;;;10.60;99.90;;;;;;5131032;28;20126;-79
2021/12/30 02:44:23;;;;;;;115.75;47.17;;;10.60;99.90;;;;;;5122795;27;20436;-81
2021/12/30 02:46:53;;;;;;;107.18;36.65;;;11.30;99.90;;;;;;5126072;27;20039;-80
2021/12/30 02:49:20;;;;;;;237.27;211.88;;;11.00;99.90;;;;;;5131130;27;20031;-80
2021/12/30 02:51:46;;;;;;;112.47;77.68;;;;;;;;;;5133009;27;20475;-81
2021/12/30 02:54:11;;;;;;;373.15;336.80;;;10.80;99.90;;;;;;5129601;27;20114;-80
2021/12/30 02:56:37;;;;;;;115.60;35.13;;;10.90;99.90;;;;;;5134905;27;20118;-80
2021/12/30 02:59:04;;;;;;;453.95;237.88;;;11.10;99.90;;;;;;5127536;27;20280;-80
2021/12/30 03:01:32;;;;;;;158.15;104.05;;;12.30;99.90;;;;;;5131541;27;20121;-81
2021/12/30 03:04:02;;;;;;;210.25;176.00;;;11.10;99.90;;;;;;5133955;27;20115;-82
2021/12/30 03:06:28;;;;;;;110.82;57.70;;;10.70;99.90;;;;;;5131167;27;20035;-82
2021/12/30 03:08:56;;;;;;;1224.47;551.00;;;10.90;99.90;;;;;;5128686;27;20119;-81
2021/12/30 03:11:23;;;;;;;403.98;364.48;;;11.30;99.90;;;;;;5133933;27;20051;-81
2021/12/30 03:13:49;;;;;;;157.55;72.55;;;10.90;99.90;;;;;;5098570;27;20524;-81
2021/12/30 03:16:24;;;;;;;343.75;248.73;;;10.90;99.90;;;;;;5114350;27;20051;-81
2021/12/30 03:18:51;;;;;;;187.80;152.55;;;11.10;99.90;;;;;;5134091;27;20078;-81
2021/12/30 03:21:19;;;;;;;257.75;209.18;;;11.30;99.90;;;;;;5132267;27;20047;-82
2021/12/30 03:23:46;;;;;;;209.38;183.40;;;11.50;99.90;;;;;;5148865;27;20047;-82
2021/12/30 03:26:12;;;;;;;158.55;96.93;;;11.10;99.90;;;;;;5109682;27;20108;-84
2021/12/30 03:28:40;;;;;;;186.40;103.90;;;11.50;99.90;;;;;;5134447;27;20122;-81
2021/12/30 03:31:07;;;;;;;194.95;114.22;;;11.70;99.90;;;;;;5112158;27;20057;-81
2021/12/30 03:33:33;;;;;;;261.05;228.80;;;11.60;99.90;;;;;;5112758;28;20084;-81
2021/12/30 03:36:00;;;;;;;211.23;110.00;;;11.50;99.90;;;;;;5126911;27;20051;-85
2021/12/30 03:38:32;;;;;;;431.00;387.85;;;11.60;99.90;;;;;;5133384;27;20034;-81
2021/12/30 03:40:59;;;;;;;207.93;150.95;;;11.30;99.90;;;;;;5132359;27;20053;-80
2021/12/30 03:43:26;;;;;;;573.85;455.42;;;11.70;99.90;;;;;;5134172;27;20047;-80
2021/12/30 03:45:52;;;;;;;270.45;235.02;;;11.40;99.90;;;;;;5132581;27;20047;-81
2021/12/30 03:48:18;;;;;;;389.00;352.17;;;11.60;99.90;;;;;;5133476;27;20043;-81
2021/12/30 03:50:45;;;;;;;227.10;111.80;;;11.70;99.90;;;;;;5149594;27;20455;-89
2021/12/30 03:53:13;;;;;;;307.25;264.98;;;11.70;99.90;;;;;;5133305;27;20043;-81
2021/12/30 03:55:39;;;;;;;289.27;259.33;;;11.70;99.90;;;;;;5133531;27;20043;-80
2021/12/30 03:58:05;;;;;;;488.65;439.73;;;11.50;99.90;;;;;;5130892;27;20349;-81
2021/12/30 04:00:33;;;;;;;233.75;198.70;;;11.40;99.90;;;;;;5132519;27;20039;-80
2021/12/30 04:02:58;;;;;;;268.63;206.40;;;11.30;99.90;;;;;;5132724;27;20413;-81
2021/12/30 04:05:25;;;;;;;229.00;196.73;;;12.80;99.90;;;;;;5133993;27;20043;-80
2021/12/30 04:07:52;;;;;;;300.38;271.38;;;11.40;99.90;;;;;;5130649;27;20047;-81
2021/12/30 04:10:23;;;;;;;275.70;244.15;;;11.90;99.90;;;;;;5114657;27;20118;-81
2021/12/30 04:12:51;;;;;;;318.60;269.65;;;11.50;99.90;;;;;;5113609;27;20035;-80
2021/12/30 04:15:17;;;;;;;411.45;367.50;;;11.80;99.90;;;;;;5125693;27;20035;-81
2021/12/30 04:17:43;;;;;;;318.73;285.75;;;11.70;99.90;;;;;;5111156;27;20479;-80
2021/12/30 04:20:11;;;;;;;1198.25;581.90;;;11.80;99.90;;;;;;5121999;27;20060;-80
2021/12/30 04:22:38;;;;;;;316.38;264.00;;;12.00;99.90;;;;;;5130890;27;20115;-80
2021/12/30 04:25:07;;;;;;;247.88;216.07;;;11.60;99.90;;;;;;5127378;27;20120;-80
2021/12/30 04:27:33;;;;;;;240.93;203.88;;;11.70;99.90;;;;;;5130843;27;20046;-82
2021/12/30 04:29:58;;;;;;;631.88;573.17;;;11.70;99.90;;;;;;5142881;27;20043;-80
2021/12/30 04:32:24;;;;;;;288.55;240.68;;;12.00;99.90;;;;;;5128948;27;20055;-84
2021/12/30 04:34:50;;;;;;;431.48;390.40;;;12.10;99.90;;;;;;5132403;27;20043;-81
2021/12/30 04:37:16;;;;;;;349.83;316.33;;;12.00;99.90;;;;;;5125773;27;20063;-80
2021/12/30 04:39:42;;;;;;;551.58;498.42;;;11.90;99.90;;;;;;5120088;27;20040;-80
2021/12/30 04:42:07;;;;;;;405.17;365.00;;;12.20;99.90;;;;;;5131574;27;20039;-80
2021/12/30 04:44:33;;;;;;;385.55;348.55;;;12.10;99.90;;;;;;5132561;27;20047;-80
2021/12/30 04:46:59;;;;;;;552.80;432.67;;;12.00;99.90;;;;;;5131991;27;20107;-79
2021/12/30 04:49:26;;;;;;;459.75;376.73;;;12.30;99.90;;;;;;5111282;27;20384;-80
2021/12/30 04:51:52;;;;;;;455.88;413.95;;;12.30;99.90;;;;;;5115541;27;20061;-81
2021/12/30 04:54:18;;;;;;;368.13;331.35;;;12.40;99.90;;;;;;5121131;27;20075;-80
2021/12/30 04:56:44;;;;;;;1448.53;814.45;;;12.50;99.90;;;;;;5132009;27;20431;-80
2021/12/30 04:59:11;;;;;;;314.67;281.40;;;12.20;99.90;;;;;;5147698;27;20050;-80
2021/12/30 05:01:38;;;;;;;455.90;414.85;;;12.80;99.90;;;;;;5131556;27;20082;-80
2021/12/30 05:04:05;;;;;;;1621.70;681.70;;;16.00;99.90;;;;;;5132409;27;20471;-80
2021/12/30 05:06:32;;;;;;;919.88;832.70;;;12.80;99.90;;;;;;5129914;27;20112;-81
2021/12/30 05:08:59;;;;;;;1032.47;925.67;;;13.10;99.90;;;;;;5131397;27;20057;-84
2021/12/30 05:11:25;;;;;;;1031.22;909.45;;;12.30;99.90;;;;;;5129857;27;20491;-80
2021/12/30 05:13:51;;;;;;;973.50;876.50;;;12.40;99.90;;;;;;5131139;27;20039;-80
2021/12/30 05:16:18;;;;;;;1052.03;874.28;;;13.60;99.90;;;;;;5130845;27;20095;-80
2021/12/30 05:18:44;;;;;;;1823.45;999.90;;;12.40;99.90;;;;;;5130107;27;20055;-80
2021/12/30 05:21:10;;;;;;;1999.90;999.90;;;12.50;99.90;;;;;;5130398;27;20047;-80
2021/12/30 05:23:38;;;;;;;1999.90;999.90;;;12.80;99.90;;;;;;5131880;27;20081;-79
2021/12/30 05:26:04;;;;;;;1999.90;999.90;;;13.00;99.90;;;;;;5131831;27;20078;-80
2021/12/30 05:28:30;;;;;;;1999.90;999.90;;;13.10;99.90;;;;;;5126049;27;20384;-81
2021/12/30 05:30:58;;;;;;;1999.90;999.90;;;13.00;99.90;;;;;;5130613;27;20126;-80
2021/12/30 05:33:24;;;;;;;1999.90;999.90;;;12.80;99.90;;;;;;5131789;27;20043;-80
2021/12/30 05:35:50;;;;;;;1999.90;999.90;;;12.70;99.90;;;;;;5130717;27;20062;-80
2021/12/30 05:38:17;;;;;;;1999.90;999.90;;;13.10;99.90;;;;;;5120601;27;20107;-80
2021/12/30 05:40:44;;;;;;;1999.90;999.90;;;12.80;99.90;;;;;;5132107;27;20051;-79
2021/12/30 05:43:09;;;;;;;1999.90;999.90;;;13.20;99.90;;;;;;5131973;27;20111;-79
2021/12/30 05:45:35;;;;;;;1999.90;999.90;;;13.20;99.90;;;;;;5112253;27;20393;-80
2021/12/30 05:48:03;;;;;;;1999.90;999.90;;;13.00;99.90;;;;;;5125833;27;20039;-79
2021/12/30 05:50:33;;;;;;;1999.90;999.90;;;13.10;99.90;;;;;;5113564;27;20039;-79
2021/12/30 05:52:59;;;;;;;1999.90;999.90;;;12.70;99.90;;;;;;5130310;27;20054;-80
2021/12/30 05:55:25;;;;;;;1999.90;999.90;;;12.60;99.90;;;;;;5132359;27;20431;-79
2021/12/30 05:57:52;;;;;;;1999.90;999.90;;;13.00;99.90;;;;;;5111339;27;20475;-79
2021/12/30 06:00:20;;;;;;;1999.90;999.90;;;12.70;99.90;;;;;;5124415;27;20051;-80
2021/12/30 06:02:46;;;;;;;1999.90;999.90;;;13.20;99.90;;;;;;5130180;27;20038;-79
2021/12/30 06:05:12;;;;;;;1999.90;999.90;;;13.30;99.90;;;;;;5130453;27;20047;-83
2021/12/30 06:07:37;;;;;;;1999.90;999.90;;;13.30;99.90;;;;;;5129819;27;20066;-80
2021/12/30 06:10:04;;;;;;;1999.90;999.90;;;14.00;99.90;;;;;;5130930;27;20122;-80
2021/12/30 06:12:30;;;;;;;1999.90;999.90;;;13.20;99.90;;;;;;5146173;27;20035;-81
2021/12/30 06:14:57;;;;;;;1999.90;999.90;;;13.20;99.90;;;;;;5130544;27;20042;-80
2021/12/30 06:17:23;;;;;;;1999.90;999.90;;;12.90;99.90;;;;;;5129193;27;20210;-80
2021/12/30 06:19:49;;;;;;;1999.90;999.90;;;12.90;99.90;;;;;;5129852;27;20066;-81
2021/12/30 06:22:15;;;;;;;1999.90;999.90;;;13.40;99.90;;;;;;5110597;28;20116;-81
2021/12/30 06:24:41;;;;;;;1999.90;999.90;;;13.50;99.90;;;;;;5124057;27;20506;-80
2021/12/30 06:27:07;;;;;;;1999.90;999.90;;;13.40;99.90;;;;;;5123538;27;20471;-80
2021/12/30 06:29:34;;;;;;;1999.90;999.90;;;13.50;99.90;;;;;;5130831;27;20043;-81
2021/12/30 06:32:00;;;;;;;1999.90;999.90;;;13.30;99.90;;;;;;5129795;27;20122;-87
2021/12/30 06:34:26;;;;;;;1999.90;999.90;;;13.60;99.90;;;;;;5130324;27;20054;-80
2021/12/30 06:36:52;;;;;;;1999.90;999.90;;;13.10;99.90;;;;;;5111995;28;20344;-79
2021/12/30 06:39:17;;;;;;;1999.90;999.90;;;13.90;99.90;;;;;;5128901;28;20043;-80
2021/12/30 06:41:43;;;;;;;1999.90;999.90;;;13.60;99.90;;;;;;5121215;28;20056;-78
2021/12/30 06:44:09;;;;;;;1999.90;999.90;;;13.30;99.90;;;;;;5123742;28;20176;-79
2021/12/30 06:46:35;;;;;;;1999.90;999.90;;;13.30;99.90;;;;;;5119034;28;20074;-79
2021/12/30 06:49:07;;;;;;;1999.90;999.90;;;13.60;99.90;;;;;;5127002;28;20044;-87
2021/12/30 06:51:35;;;;;;;1999.90;999.90;;;13.80;99.90;;;;;;5129327;27;20047;-79
2021/12/30 06:54:04;;;;;;;;;;;13.40;99.90;;;;;;5131374;28;20051;-78
2021/12/30 06:56:30;;;;;;;1999.90;999.90;;;13.40;99.90;;;;;;5121892;28;19998;-78
2021/12/30 06:58:56;;;;;;;1999.90;999.90;;;13.50;99.90;;;;;;5130037;28;20507;-78
2021/12/30 07:01:21;;;;;;;1999.90;999.90;;;13.40;99.90;;;;;;5130656;28;20362;-77
2021/12/30 07:03:47;;;;;;;1999.90;999.90;;;13.40;99.90;;;;;;5129518;27;20398;-79
2021/12/30 07:06:13;;;;;;;1999.90;999.90;;;13.60;99.90;;;;;;5125077;28;20048;-80
2021/12/30 07:08:39;;;;;;;1999.90;999.90;;;13.40;99.90;;;;;;5106475;28;20161;-78
2021/12/30 07:11:05;;;;;;;1999.90;999.90;;;13.80;99.90;;;;;;5130391;27;20384;-77
2021/12/30 07:13:30;;;;;;;1999.90;999.90;;;13.90;99.90;;;;;;5128748;28;20084;-78
2021/12/30 07:15:56;;;;;;;1999.90;999.90;;;13.80;99.90;;;;;;5129416;27;20058;-78
2021/12/30 07:18:22;;;;;;;1999.90;999.90;;;13.80;99.90;;;;;;5119535;28;20089;-78
2021/12/30 07:20:47;;;;;;;1999.90;999.90;;;13.40;99.90;;;;;;5123699;28;20509;-76
2021/12/30 07:23:13;;;;;;;1999.90;999.90;;;13.40;99.90;;;;;;5121221;28;20050;-76
2021/12/30 07:25:39;;;;;;;1999.90;999.90;;;13.70;99.90;;;;;;5137187;27;20043;-77
2021/12/30 07:28:05;;;;;;;1999.90;999.90;;;14.00;99.90;;;;;;5128477;28;20039;-77
2021/12/30 07:30:31;;;;;;;1999.90;999.90;;;13.50;99.90;;;;;;5120632;27;20061;-76
2021/12/30 07:32:57;;;;;;;1999.90;999.90;;;13.50;99.90;;;;;;5131515;27;20787;-76
2021/12/30 07:35:22;;;;;;;1999.90;999.90;;;14.00;99.90;;;;;;5128085;27;20048;-77
2021/12/30 07:37:49;;;;;;;1999.90;999.90;;;13.60;99.90;;;;;;5131369;27;20046;-77
2021/12/30 07:40:16;;;;;;;1999.90;999.90;;;13.70;99.90;;;;;;5133604;27;20526;-77
2021/12/30 07:42:42;;;;;;;1999.90;999.90;;;13.70;99.90;;;;;;5148691;27;20051;-78
2021/12/30 07:45:09;;;;;;;1999.90;999.90;;;14.00;99.90;;;;;;5132886;27;20047;-82
2021/12/30 07:47:36;;;;;;;1999.90;999.90;;;13.80;99.90;;;;;;5115386;27;20047;-79
2021/12/30 07:50:02;;;;;;;1999.90;999.90;;;14.40;99.90;;;;;;5129349;27;20526;-78
2021/12/30 07:52:28;;;;;;;1999.90;999.90;;;14.00;99.90;;;;;;5131701;27;20047;-78
2021/12/30 07:54:54;;;;;;;1999.90;999.90;;;14.00;99.90;;;;;;5112954;27;20189;-76
2021/12/30 07:57:23;;;;;;;1999.90;999.90;;;13.90;99.90;;;;;;5129750;27;20066;-76
2021/12/30 07:59:50;;;;;;;1999.90;999.90;;;13.90;99.90;;;;;;5115964;27;20047;-76
2021/12/30 08:02:16;;;;;;;1999.90;999.90;;;13.70;99.90;;;;;;5115060;27;20508;-76
2021/12/30 08:04:42;;;;;;;1999.90;999.90;;;13.80;99.90;;;;;;5133314;27;20051;-76
2021/12/30 08:07:08;;;;;;;1999.90;999.90;;;14.10;99.90;;;;;;5133040;27;20460;-76
2021/12/30 08:09:33;;;;;;;1999.90;999.90;;;13.90;99.90;;;;;;5133658;27;20098;-77
2021/12/30 08:12:00;;;;;;;1999.90;999.90;;;13.80;99.90;;;;;;5133407;27;20068;-76
2021/12/30 08:14:27;;;;;;;1999.90;999.90;;;14.20;99.90;;;;;;5144404;27;20100;-75
2021/12/30 08:16:53;;;;;;;1999.90;999.90;;;13.80;99.90;;;;;;5100342;27;20046;-76
2021/12/30 08:19:18;;;;;;;1999.90;999.90;;;13.80;99.90;;;;;;5132851;27;20445;-76
2021/12/30 08:21:44;;;;;;;1999.90;999.90;;;13.70;99.90;;;;;;5131621;27;20054;-76
2021/12/30 08:24:10;;;;;;;1999.90;999.90;;;14.20;99.90;;;;;;5130356;27;20042;-76
2021/12/30 08:26:37;;;;;;;1999.90;999.90;;;13.70;99.90;;;;;;5130210;27;20038;-76
2021/12/30 08:29:03;;;;;;;1999.90;999.90;;;13.90;99.90;;;;;;5132110;27;20043;-76
2021/12/30 08:31:29;;;;;;;1999.90;999.90;;;14.20;99.90;;;;;;5131099;27;20089;-76
2021/12/30 08:33:55;;;;;;;1999.90;999.90;;;14.30;99.90;;;;;;5131656;27;20572;-76
2021/12/30 08:36:20;;;;;;;1999.90;999.90;;;14.20;99.90;;;;;;5122235;27;20043;-78
2021/12/30 08:38:46;;;;;;;1999.90;999.90;;;13.70;99.90;;;;;;5132538;27;20057;-76
2021/12/30 08:41:12;;;;;;;1999.90;999.90;;;13.90;99.90;;;;;;5126086;27;20428;-78
2021/12/30 08:43:38;;;;;;;1999.90;999.90;;;14.20;99.90;;;;;;5130332;27;20099;-77
2021/12/30 08:46:03;;;;;;;1999.90;999.90;;;13.80;99.90;;;;;;5113635;27;20054;-77
2021/12/30 08:48:29;;;;;;;1999.90;917.90;;;14.30;99.90;;;;;;5129388;27;20475;-77
2021/12/30 08:50:56;;;;;;;1999.90;630.75;;;13.60;99.90;;;;;;5130277;27;20505;-80
2021/12/30 08:53:25;;;;;;;1999.90;999.90;;;13.20;99.90;;;;;;5132105;27;20123;-77
2021/12/30 08:55:51;;;;;;;1999.90;999.90;;;13.70;99.90;;;;;;5128590;27;20048;-79
2021/12/30 08:58:17;;;;;;;1999.90;999.90;;;13.70;99.90;;;;;;5111697;27;20043;-78
2021/12/30 09:00:46;;;;;;;1999.90;836.78;;;14.30;99.90;;;;;;5112606;27;20066;-79
2021/12/30 09:03:12;;;;;;;1999.90;894.88;;;14.30;99.90;;;;;;5131916;27;20154;-79
2021/12/30 09:05:38;;;;;;;1999.90;604.17;;;14.60;99.90;;;;;;5129503;27;20043;-78
2021/12/30 09:08:05;;;;;;;1999.90;580.55;;;14.00;99.90;;;;;;5128305;27;20522;-77
2021/12/30 09:10:35;;;;;;;1999.90;999.90;;;14.40;99.90;;;;;;5132105;27;20184;-79
2021/12/30 09:13:01;;;;;;;1707.90;561.95;;;13.90;99.90;;;;;;5110027;27;20074;-79
2021/12/30 09:15:29;;;;;;;1659.40;811.70;;;14.50;99.90;;;;;;5131901;27;20049;-78
2021/12/30 09:17:55;;;;;;;1973.40;956.67;;;14.20;99.90;;;;;;5131769;27;20055;-76
2021/12/30 09:20:22;;;;;;;1999.90;999.90;;;14.40;99.90;;;;;;5132053;27;20047;-76
2021/12/30 09:22:49;;;;;;;1999.90;999.90;;;14.00;99.90;;;;;;5131535;27;20058;-76
2021/12/30 09:25:17;;;;;;;1999.90;999.90;;;14.40;99.90;;;;;;5131421;27;20043;-77
2021/12/30 09:27:43;;;;;;;1999.90;999.90;;;14.20;99.90;;;;;;5113477;27;20059;-77
2021/12/30 09:30:12;;;;;;;1999.90;666.20;;;14.50;99.90;;;;;;5130946;27;20047;-78
2021/12/30 09:32:38;;;;;;;1999.90;999.90;;;14.40;99.90;;;;;;5131086;27;20460;-75
2021/12/30 09:35:04;;;;;;;1999.90;999.90;;;13.60;99.90;;;;;;5131197;27;20047;-74
2021/12/30 09:37:30;;;;;;;1999.90;999.90;;;13.80;99.90;;;;;;5101620;27;20181;-74
2021/12/30 09:39:56;;;;;;;1999.90;999.90;;;13.70;99.90;;;;;;5128519;27;20159;-74
2021/12/30 09:42:22;;;;;;;1999.90;999.90;;;13.60;99.90;;;;;;5147299;27;20070;-74
2021/12/30 09:44:48;;;;;;;1999.90;999.90;;;14.30;99.90;;;;;;5131502;27;20062;-76
2021/12/30 09:47:14;;;;;;;1999.90;509.27;;;13.90;99.90;;;;;;5131139;27;20129;-74
2021/12/30 09:49:40;;;;;;;1812.00;801.55;;;13.80;99.90;;;;;;5128523;27;20398;-75
2021/12/30 09:52:05;;;;;;;1999.90;574.55;;;14.50;99.90;;;;;;5130903;27;20039;-75
2021/12/30 09:54:32;;;;;;;1997.32;377.35;;;14.50;99.90;;;;;;5130167;27;20058;-74
2021/12/30 09:56:58;;;;;;;1999.90;630.97;;;14.60;99.90;;;;;;5113382;27;20047;-74
2021/12/30 09:59:24;;;;;;;1999.90;585.85;;;14.60;99.90;;;;;;5131224;27;20524;-74
2021/12/30 10:01:50;;;;;;;638.45;563.90;;;14.30;99.90;;;;;;5145753;27;20039;-74
2021/12/30 10:04:16;;;;;;;1773.95;766.83;;;13.30;99.90;;;;;;5131483;27;20042;-76
2021/12/30 10:06:48;;;;;;;743.47;671.70;;;14.80;99.90;;;;;;5145781;27;20295;-75
2021/12/30 10:09:16;;;;;;;545.25;497.70;;;14.50;99.90;;;;;;5131480;27;20529;-75
2021/12/30 10:11:49;;;;;;;1999.90;999.90;;;13.60;99.90;;;;;;5124508;27;20047;-74
2021/12/30 10:14:36;;;;;;;1999.90;999.90;;;14.30;99.90;;;;;;5130326;27;20062;-75
2021/12/30 10:17:25;;;;;;;1188.60;467.42;;;14.70;99.90;;;;;;5131654;27;20168;-77
2021/12/30 10:19:52;;;;;;;1999.90;737.42;;;13.60;99.90;;;;;;5129128;27;20055;-76
2021/12/30 10:22:21;;;;;;;512.03;409.10;;;14.70;99.90;;;;;;5129052;27;20051;-77
2021/12/30 10:24:48;;;;;;;1999.57;739.60;;;13.50;99.90;;;;;;5113006;27;20060;-77
2021/12/30 10:27:25;;;;;;;294.25;266.75;;;14.70;99.90;;;;;;5131011;27;20047;-77
2021/12/30 10:29:51;;;;;;;353.13;227.45;;;14.70;99.90;;;;;;5131758;27;20070;-79
2021/12/30 10:32:21;;;;;;;184.02;167.93;;;13.70;99.90;;;;;;5130244;27;20099;-76
2021/12/30 10:35:11;;;;;;;583.92;359.88;;;13.70;99.90;;;;;;5129530;27;20506;-75
2021/12/30 10:37:41;;;;;;;346.30;211.95;;;14.60;99.90;;;;;;5110174;28;20048;-77
2021/12/30 10:40:27;;;;;;;305.10;280.42;;;14.60;99.90;;;;;;5130848;28;20047;-77
2021/12/30 10:43:57;;;;;;;954.22;377.00;;;14.50;99.90;;;;;;5130699;28;20047;-76
2021/12/30 10:46:17;;;;;;;1999.90;678.55;;;13.90;99.90;;;;;;5128106;28;20055;-77
2021/12/30 10:48:46;;;;;;;531.75;452.15;;;14.20;99.90;;;;;;5130808;27;20487;-77
2021/12/30 10:51:31;;;;;;;1999.90;979.83;;;13.60;99.90;;;;;;5118288;28;20071;-76
2021/12/30 10:53:58;;;;;;;167.68;75.65;;;14.20;99.90;;;;;;5111416;28;20043;-76
2021/12/30 10:56:35;;;;;;;132.32;95.70;;;13.30;99.90;;;;;;5111053;28;20051;-78
2021/12/30 10:59:14;;;;;;;61.45;19.33;;;13.30;99.90;;;;;;5092971;28;20047;-78
2021/12/30 11:01:53;;;;;;;134.27;47.60;;;14.40;99.90;;;;;;5122298;28;20040;-78
2021/12/30 11:04:19;;;;;;;;;;;13.30;99.90;;;;;;5148134;27;20464;-80
2021/12/30 11:06:46;;;;;;;1289.05;364.73;;;14.70;99.90;;;;;;5107787;28;19923;-79
2021/12/30 11:09:20;;;;;;;267.27;48.85;;;14.70;99.90;;;;;;5097294;28;20048;-78
2021/12/30 11:11:56;;;;;;;1609.75;363.38;;;14.30;99.90;;;;;;5133476;27;20126;-81
2021/12/30 11:14:24;;;;;;;68.55;13.88;;;13.30;99.90;;;;;;5133967;27;20111;-80
2021/12/30 11:17:10;;;;;;;107.38;32.67;;;14.70;99.90;;;;;;5134852;27;20075;-79
2021/12/30 11:19:47;;;;;;;137.63;27.02;;;14.80;99.90;;;;;;5134920;27;20061;-78
2021/12/30 11:22:21;;;;;;;65.80;14.98;;;13.10;99.90;;;;;;5134460;27;20039;-79
2021/12/30 11:24:49;;;;;;;73.20;15.13;;;14.70;99.90;;;;;;5114310;28;20122;-78
2021/12/30 11:27:16;;;;;;;69.88;13.90;;;14.70;99.90;;;;;;5113267;28;20062;-80
2021/12/30 11:29:45;;;;;;;66.50;14.47;;;13.50;99.90;;;;;;5114707;28;20081;-78
2021/12/30 11:32:18;;;;;;;92.63;14.60;;;14.30;99.90;;;;;;5129463;27;20058;-79
2021/12/30 11:34:48;;;;;;;62.78;13.70;;;13.40;99.90;;;;;;5134642;27;20051;-80
2021/12/30 11:37:15;;;;;;;249.05;25.02;;;13.80;99.90;;;;;;5134696;27;20111;-81
2021/12/30 11:39:43;;;;;;;74.85;15.25;;;14.40;99.90;;;;;;5095593;27;20156;-79
2021/12/30 11:42:37;;;;;;;80.22;16.00;;;14.30;99.90;;;;;;5129537;27;20123;-80
2021/12/30 11:45:21;;;;;;;93.28;14.68;;;13.40;99.90;;;;;;5110809;27;20407;-78
2021/12/30 11:47:47;;;;;;;67.53;14.57;;;14.20;99.90;;;;;;5130722;27;20108;-79
2021/12/30 11:50:35;;;;;;;942.55;197.88;;;13.90;99.90;;;;;;5115909;27;20054;-77
2021/12/30 11:53:31;;;;;;;242.43;66.27;;;13.20;99.90;;;;;;5110380;28;20461;-78
2021/12/30 11:56:01;;;;;;;188.30;28.98;;;13.10;99.90;;;;;;5113279;28;20358;-77
2021/12/30 11:58:36;;;;;;;127.18;21.08;;;13.30;99.90;;;;;;5114765;27;20131;-78
2021/12/30 12:01:04;;;;;;;84.47;17.13;;;14.40;99.90;;;;;;5127870;27;20058;-78
2021/12/30 12:03:39;;;;;;;91.72;17.17;;;12.80;99.90;;;;;;5134923;27;20138;-77
2021/12/30 12:06:31;;;;;;;221.07;49.95;;;14.40;99.90;;;;;;5129202;27;20461;-77
2021/12/30 12:09:08;;;;;;;171.80;30.70;;;14.50;99.90;;;;;;5134364;27;20078;-76
2021/12/30 12:11:56;;;;;;;93.37;17.27;;;14.50;99.90;;;;;;5133677;27;20047;-77